createdAt,value
2018-05-03T00:00:12.512Z,0
2018-05-03T00:01:22.592Z,0
2018-05-03T00:02:32.665Z,0
2018-05-03T00:03:42.775Z,0
2018-05-03T00:04:52.898Z,0
2018-05-03T00:06:02.982Z,0
2018-05-03T00:07:12.797Z,0
2018-05-03T00:08:22.879Z,0
2018-05-03T00:09:32.497Z,0
2018-05-03T00:10:42.577Z,0
2018-05-03T00:11:52.655Z,0
2018-05-03T00:13:02.736Z,0
2018-05-03T00:14:12.860Z,0
2018-05-03T00:15:22.971Z,0
2018-05-03T00:16:33.080Z,0
2018-05-03T00:17:43.153Z,0
2018-05-03T00:18:53.258Z,0
2018-05-03T00:20:03.069Z,0
2018-05-03T00:21:13.131Z,0
2018-05-03T00:22:23.277Z,0
2018-05-03T00:23:33.361Z,0
2018-05-03T00:24:43.465Z,0
2018-05-03T00:25:53.552Z,0
2018-05-03T00:27:03.664Z,0
2018-05-03T00:28:13.772Z,0
2018-05-03T00:29:23.885Z,0
2018-05-03T00:30:33.958Z,0
2018-05-03T00:31:43.790Z,0
2018-05-03T00:32:53.869Z,0
2018-05-03T00:34:04.013Z,0
2018-05-03T00:35:14.094Z,0
2018-05-03T00:36:23.910Z,0
2018-05-03T00:37:34.003Z,0
2018-05-03T00:38:44.111Z,0
2018-05-03T00:39:54.222Z,0
2018-05-03T00:41:04.046Z,0
2018-05-03T00:42:14.120Z,0
2018-05-03T00:43:24.184Z,0
2018-05-03T00:44:34.257Z,0
2018-05-03T00:45:43.875Z,0
2018-05-03T00:46:53.948Z,0
2018-05-03T00:48:04.023Z,0
2018-05-03T00:49:14.133Z,0
2018-05-03T00:50:23.959Z,0
2018-05-03T00:51:34.052Z,0
2018-05-03T00:52:44.157Z,0
2018-05-03T00:53:54.246Z,0
2018-05-03T00:55:04.340Z,0
2018-05-03T00:56:14.402Z,0
2018-05-03T00:57:24.538Z,0
2018-05-03T00:58:34.344Z,0
2018-05-03T00:59:44.144Z,0
2018-05-03T01:00:54.233Z,0
2018-05-03T01:02:04.312Z,0
2018-05-03T01:03:14.446Z,0
2018-05-03T01:04:24.535Z,0
2018-05-03T01:05:34.642Z,0
2018-05-03T01:06:44.737Z,0
2018-05-03T01:07:54.829Z,0
2018-05-03T01:09:04.652Z,0
2018-05-03T01:10:14.726Z,0
2018-05-03T01:11:24.831Z,0
2018-05-03T01:12:34.904Z,0
2018-05-03T01:13:44.998Z,0
2018-05-03T01:14:54.591Z,0
2018-05-03T01:16:04.413Z,0
2018-05-03T01:17:14.489Z,0
2018-05-03T01:18:24.559Z,0
2018-05-03T01:19:34.652Z,0
2018-05-03T01:20:44.802Z,0
2018-05-03T01:21:54.886Z,0
2018-05-03T01:23:04.980Z,0
2018-05-03T01:24:15.141Z,0
2018-05-03T01:25:25.219Z,0
2018-05-03T01:26:35.296Z,0
2018-05-03T01:27:45.105Z,0
2018-05-03T01:28:55.192Z,0
2018-05-03T01:30:05.282Z,0
2018-05-03T01:31:15.358Z,0
2018-05-03T01:32:25.438Z,0
2018-05-03T01:33:35.522Z,0
2018-05-03T01:34:45.614Z,0
2018-05-03T01:35:55.707Z,0
2018-05-03T01:37:05.790Z,0
2018-05-03T01:38:15.870Z,0
2018-05-03T01:39:25.691Z,0
2018-05-03T01:40:35.792Z,0
2018-05-03T01:41:45.870Z,0
2018-05-03T01:42:55.687Z,0
2018-05-03T01:44:05.774Z,0
2018-05-03T01:45:15.867Z,0
2018-05-03T01:46:27.125Z,0
2018-05-03T01:47:37.214Z,0
2018-05-03T01:48:47.276Z,0
2018-05-03T01:49:57.139Z,0
2018-05-03T01:51:06.974Z,0
2018-05-03T01:52:17.056Z,0
2018-05-03T01:53:27.158Z,0
2018-05-03T01:54:36.968Z,0
2018-05-03T01:55:47.054Z,0
2018-05-03T01:56:57.127Z,0
2018-05-03T01:58:06.954Z,0
2018-05-03T01:59:17.066Z,0
2018-05-03T02:00:27.144Z,0
2018-05-03T02:01:36.983Z,0
2018-05-03T02:02:46.812Z,0
2018-05-03T02:03:56.882Z,0
2018-05-03T02:05:07.041Z,0
2018-05-03T02:06:16.643Z,0
2018-05-03T02:07:26.927Z,0
2018-05-03T02:08:37.009Z,0
2018-05-03T02:09:47.121Z,0
2018-05-03T02:10:57.212Z,0
2018-05-03T02:12:07.295Z,0
2018-05-03T02:13:17.378Z,0
2018-05-03T02:14:27.444Z,0
2018-05-03T02:15:37.527Z,0
2018-05-03T02:16:47.593Z,0
2018-05-03T02:17:57.394Z,0
2018-05-03T02:19:07.531Z,0
2018-05-03T02:20:17.612Z,0
2018-05-03T02:21:27.716Z,0
2018-05-03T02:22:37.790Z,0
2018-05-03T02:23:47.885Z,0
2018-05-03T02:24:57.972Z,0
2018-05-03T02:26:08.052Z,0
2018-05-03T02:27:18.142Z,0
2018-05-03T02:28:28.228Z,0
2018-05-03T02:29:37.779Z,0
2018-05-03T02:30:47.863Z,0
2018-05-03T02:31:57.676Z,0
2018-05-03T02:33:07.756Z,0
2018-05-03T02:34:17.828Z,0
2018-05-03T02:35:27.937Z,0
2018-05-03T02:36:38.036Z,0
2018-05-03T02:37:48.117Z,0
2018-05-03T02:38:58.212Z,0
2018-05-03T02:40:08.302Z,0
2018-05-03T02:41:18.409Z,0
2018-05-03T02:42:28.561Z,0
2018-05-03T02:43:38.641Z,0
2018-05-03T02:44:48.735Z,0
2018-05-03T02:45:58.838Z,0
2018-05-03T02:47:08.929Z,0
2018-05-03T02:48:19.058Z,0
2018-05-03T02:49:29.157Z,0
2018-05-03T02:50:39.244Z,0
2018-05-03T02:51:49.337Z,0
2018-05-03T02:52:59.418Z,0
2018-05-03T02:54:09.535Z,0
2018-05-03T02:55:19.675Z,0
2018-05-03T02:56:29.497Z,0
2018-05-03T02:57:39.589Z,0
2018-05-03T02:58:49.406Z,0
2018-05-03T02:59:59.502Z,0
2018-05-03T03:01:09.600Z,0
2018-05-03T03:02:19.831Z,0
2018-05-03T03:34:17.940Z,112
2018-05-03T03:35:27.745Z,120
2018-05-03T03:36:37.791Z,132
2018-05-03T03:37:47.880Z,140
2018-05-03T03:38:57.935Z,152
2018-05-03T03:40:08.055Z,164
2018-05-03T03:41:18.146Z,180
2018-05-03T03:42:28.218Z,200
2018-05-03T03:43:38.045Z,212
2018-05-03T03:44:47.862Z,232
2018-05-03T03:45:57.938Z,248
2018-05-03T03:47:08.014Z,268
2018-05-03T03:48:18.081Z,284
2018-05-03T03:49:28.140Z,304
2018-05-03T03:50:37.697Z,324
2018-05-03T03:51:47.545Z,340
2018-05-03T03:52:57.621Z,360
2018-05-03T03:54:07.168Z,380
2018-05-03T03:55:17.243Z,396
2018-05-03T03:56:27.296Z,420
2018-05-03T03:57:36.838Z,440
2018-05-03T03:58:46.924Z,464
2018-05-03T03:59:57.005Z,488
2018-05-03T04:01:07.070Z,516
2018-05-03T04:02:17.146Z,540
2018-05-03T04:03:27.273Z,572
2018-05-03T04:04:37.086Z,604
2018-05-03T04:05:46.899Z,640
2018-05-03T04:06:56.988Z,676
2018-05-03T04:08:06.814Z,720
2018-05-03T04:09:16.883Z,768
2018-05-03T04:10:26.981Z,824
2018-05-03T04:11:37.075Z,880
2018-05-03T04:12:47.158Z,932
2018-05-03T04:13:57.240Z,984
2018-05-03T04:15:07.329Z,1036
2018-05-03T04:16:17.397Z,1080
2018-05-03T04:17:27.468Z,1120
2018-05-03T04:18:37.536Z,1164
2018-05-03T04:19:47.606Z,1196
2018-05-03T04:20:57.471Z,1244
2018-05-03T04:22:07.419Z,1296
2018-05-03T04:23:17.535Z,1364
2018-05-03T04:24:27.615Z,1424
2018-05-03T04:25:37.698Z,1520
2018-05-03T04:26:47.849Z,1656
2018-05-03T04:27:57.663Z,1752
2018-05-03T04:29:07.226Z,2176
2018-05-03T04:30:17.082Z,2576
2018-05-03T04:31:27.187Z,2264
2018-05-03T04:32:37.330Z,2092
2018-05-03T04:33:47.144Z,2148
2018-05-03T04:34:56.720Z,2256
2018-05-03T04:36:06.800Z,2356
2018-05-03T04:37:16.336Z,2428
2018-05-03T04:38:25.896Z,2552
2018-05-03T04:39:35.959Z,2692
2018-05-03T04:40:46.033Z,2688
2018-05-03T04:41:56.116Z,2804
2018-05-03T04:43:05.679Z,3028
2018-05-03T04:44:15.545Z,3752
2018-05-03T04:45:25.640Z,5832
2018-05-03T04:46:35.718Z,6956
2018-05-03T04:47:45.779Z,7796
2018-05-03T04:48:55.849Z,8028
2018-05-03T04:50:05.931Z,7356
2018-05-03T04:51:15.995Z,7988
2018-05-03T04:52:25.817Z,8124
2018-05-03T04:53:35.890Z,8196
2018-05-03T04:54:45.970Z,8356
2018-05-03T04:55:55.782Z,8268
2018-05-03T04:57:05.879Z,8280
2018-05-03T04:58:15.967Z,8212
2018-05-03T04:59:26.048Z,8248
2018-05-03T05:00:35.614Z,8288
2018-05-03T05:01:45.749Z,8424
2018-05-03T05:02:55.582Z,8432
2018-05-03T05:04:05.404Z,8456
2018-05-03T05:05:15.479Z,8584
2018-05-03T05:06:25.583Z,8696
2018-05-03T05:07:35.677Z,8860
2018-05-03T05:08:45.764Z,9064
2018-05-03T05:09:55.857Z,9044
2018-05-03T05:11:05.954Z,9004
2018-05-03T05:12:16.042Z,9232
2018-05-03T05:13:25.604Z,9344
2018-05-03T05:14:35.702Z,9276
2018-05-03T05:15:45.882Z,9388
2018-05-03T05:16:55.969Z,9516
2018-05-03T05:18:06.318Z,9524
2018-05-03T05:19:16.417Z,9612
2018-05-03T05:20:26.508Z,9696
2018-05-03T05:21:36.362Z,9604
2018-05-03T05:22:46.431Z,9704
2018-05-03T05:23:56.504Z,9880
2018-05-03T05:25:06.345Z,9896
2018-05-03T05:26:16.436Z,9816
2018-05-03T05:27:26.568Z,9432
2018-05-03T05:28:36.656Z,9324
2018-05-03T05:29:46.729Z,9512
2018-05-03T05:30:57.037Z,9580
2018-05-03T05:32:07.123Z,9636
2018-05-03T05:33:17.205Z,9548
2018-05-03T05:34:27.061Z,9312
2018-05-03T05:35:37.152Z,9328
2018-05-03T05:36:46.972Z,9088
2018-05-03T05:37:57.076Z,8940
2018-05-03T05:39:07.655Z,8820
2018-05-03T05:40:17.473Z,9184
2018-05-03T05:41:27.571Z,9068
2018-05-03T05:42:37.693Z,9032
2018-05-03T05:43:47.790Z,9248
2018-05-03T05:44:57.938Z,9120
2018-05-03T05:46:08.025Z,9000
2018-05-03T05:47:17.904Z,8720
2018-05-03T05:48:27.990Z,8460
2018-05-03T05:49:38.089Z,8336
2018-05-03T05:50:47.921Z,8004
2018-05-03T05:51:58.020Z,7956
2018-05-03T05:53:08.121Z,7872
2018-05-03T05:54:18.220Z,6340
2018-05-03T05:55:28.416Z,4432
2018-05-03T05:56:38.634Z,4132
2018-05-03T05:57:48.862Z,4048
2018-05-03T05:58:58.952Z,4008
2018-05-03T06:00:09.053Z,4024
2018-05-03T06:01:19.211Z,3980
2018-05-03T06:02:29.396Z,3988
2018-05-03T06:03:39.463Z,3992
2018-05-03T06:04:49.560Z,4016
2018-05-03T06:05:59.114Z,3988
2018-05-03T06:07:09.211Z,3980
2018-05-03T06:08:19.348Z,3956
2018-05-03T06:09:29.435Z,3820
2018-05-03T06:10:39.519Z,4040
2018-05-03T06:11:49.612Z,4032
2018-05-03T06:12:59.693Z,4092
2018-05-03T06:14:09.837Z,4212
2018-05-03T06:15:19.943Z,4492
2018-05-03T06:16:30.079Z,4708
2018-05-03T06:17:40.184Z,4716
2018-05-03T06:18:51.685Z,4720
2018-05-03T06:20:03.887Z,4756
2018-05-03T06:21:15.164Z,4728
2018-05-03T06:22:25.697Z,4652
2018-05-03T06:23:35.887Z,4444
2018-05-03T06:24:45.973Z,4284
2018-05-03T06:25:55.994Z,4372
2018-05-03T06:27:05.887Z,4596
2018-05-03T06:28:15.991Z,4604
2018-05-03T06:29:26.625Z,4448
2018-05-03T06:30:36.954Z,4288
2018-05-03T06:31:48.315Z,4256
2018-05-03T06:32:59.180Z,4280
2018-05-03T06:34:10.039Z,4272
2018-05-03T06:35:21.195Z,4280
2018-05-03T06:36:31.819Z,4304
2018-05-03T06:37:41.949Z,4312
2018-05-03T06:38:52.210Z,4388
2018-05-03T06:40:02.455Z,4372
2018-05-03T06:41:12.557Z,4328
2018-05-03T06:42:22.875Z,4264
2018-05-03T06:43:33.058Z,4272
2018-05-03T06:44:43.175Z,4292
2018-05-03T06:45:53.294Z,4340
2018-05-03T06:47:03.381Z,4380
2018-05-03T06:48:13.203Z,4460
2018-05-03T06:49:23.359Z,4508
2018-05-03T06:50:33.455Z,4484
2018-05-03T06:51:43.654Z,4444
2018-05-03T06:52:53.464Z,4456
2018-05-03T06:54:03.567Z,4484
2018-05-03T06:55:13.646Z,4536
2018-05-03T06:56:23.749Z,4560
2018-05-03T06:57:33.861Z,4532
2018-05-03T06:58:44.143Z,4456
2018-05-03T06:59:54.253Z,4508
2018-05-03T07:01:04.369Z,4520
2018-05-03T07:02:14.478Z,4492
2018-05-03T07:03:24.572Z,4552
2018-05-03T07:04:34.559Z,4640
2018-05-03T07:05:44.640Z,4636
2018-05-03T07:06:54.476Z,4644
2018-05-03T07:08:04.311Z,4616
2018-05-03T07:09:14.129Z,4644
2018-05-03T07:10:23.950Z,4788
2018-05-03T07:11:34.089Z,4788
2018-05-03T07:12:44.476Z,4772
2018-05-03T07:13:54.557Z,4748
2018-05-03T07:15:04.666Z,4740
2018-05-03T07:16:14.881Z,4824
2018-05-03T07:17:25.050Z,4788
2018-05-03T07:18:35.158Z,4856
2018-05-03T07:19:44.984Z,4900
2018-05-03T07:20:54.832Z,4912
2018-05-03T07:22:04.423Z,4940
2018-05-03T07:23:14.523Z,4908
2018-05-03T07:24:24.620Z,4880
2018-05-03T07:25:34.714Z,4860
2018-05-03T07:26:44.540Z,4848
2018-05-03T07:27:54.645Z,4892
2018-05-03T07:29:04.735Z,4928
2018-05-03T07:30:14.629Z,4932
2018-05-03T07:31:24.729Z,4940
2018-05-03T07:32:34.840Z,5012
2018-05-03T07:33:44.944Z,4992
2018-05-03T07:34:55.244Z,5016
2018-05-03T07:36:05.149Z,5048
2018-05-03T07:37:15.240Z,5020
2018-05-03T07:38:25.064Z,5056
2018-05-03T07:39:35.162Z,5072
2018-05-03T07:40:45.356Z,5172
2018-05-03T07:41:55.673Z,5204
2018-05-03T07:43:05.768Z,5244
2018-05-03T07:44:15.593Z,5272
2018-05-03T07:45:25.155Z,5432
2018-05-03T07:46:34.730Z,5400
2018-05-03T07:47:44.862Z,5452
2018-05-03T07:48:54.941Z,5424
2018-05-03T07:50:05.022Z,5568
2018-05-03T07:51:15.126Z,5580
2018-05-03T07:52:25.288Z,5560
2018-05-03T07:53:34.850Z,5632
2018-05-03T07:54:44.971Z,5668
2018-05-03T07:55:54.828Z,5628
2018-05-03T07:57:04.922Z,5608
2018-05-03T07:58:15.221Z,5640
2018-05-03T07:59:25.380Z,5704
2018-05-03T08:00:35.215Z,5740
2018-05-03T08:01:45.099Z,5672
2018-05-03T08:02:54.662Z,5556
2018-05-03T08:04:04.780Z,5492
2018-05-03T08:05:14.339Z,5472
2018-05-03T08:06:24.440Z,5496
2018-05-03T08:07:34.534Z,5376
2018-05-03T08:08:44.648Z,5372
2018-05-03T08:09:54.491Z,5388
2018-05-03T08:11:04.814Z,5460
2018-05-03T08:12:14.903Z,5388
2018-05-03T08:13:25.008Z,5452
2018-05-03T08:14:35.094Z,5268
2018-05-03T08:15:45.181Z,5280
2018-05-03T08:16:55.377Z,5424
2018-05-03T08:18:05.553Z,5460
2018-05-03T08:19:15.433Z,5544
2018-05-03T08:20:25.539Z,5688
2018-05-03T08:21:35.631Z,5712
2018-05-03T08:22:45.781Z,5708
2018-05-03T08:23:55.866Z,5700
2018-05-03T08:25:05.958Z,5708
2018-05-03T08:26:15.802Z,5736
2018-05-03T08:27:25.631Z,5712
2018-05-03T08:28:35.687Z,5784
2018-05-03T08:29:45.862Z,5816
2018-05-03T08:30:55.976Z,5876
2018-05-03T08:32:06.087Z,5904
2018-05-03T08:33:16.211Z,5904
2018-05-03T08:34:25.919Z,5900
2018-05-03T08:35:36.000Z,5832
2018-05-03T08:36:46.081Z,5860
2018-05-03T08:37:56.176Z,5880
2018-05-03T08:39:06.257Z,5876
2018-05-03T08:40:16.399Z,5840
2018-05-03T08:41:26.256Z,5840
2018-05-03T08:42:36.338Z,5880
2018-05-03T08:43:46.429Z,5896
2018-05-03T08:44:56.346Z,5912
2018-05-03T08:46:06.522Z,5920
2018-05-03T08:47:16.640Z,5904
2018-05-03T08:48:26.471Z,5904
2018-05-03T08:49:36.290Z,5848
2018-05-03T08:50:46.419Z,5768
2018-05-03T08:51:56.528Z,5688
2018-05-03T08:53:06.617Z,5768
2018-05-03T08:54:16.450Z,5656
2018-05-03T08:55:26.643Z,5588
2018-05-03T08:56:36.834Z,5680
2018-05-03T08:57:46.981Z,5704
2018-05-03T08:58:56.814Z,5720
2018-05-03T09:00:06.895Z,5828
2018-05-03T09:01:17.096Z,5804
2018-05-03T09:02:27.264Z,5844
2018-05-03T09:03:37.370Z,5876
2018-05-03T09:04:47.458Z,5976
2018-05-03T09:05:57.554Z,5840
2018-05-03T09:07:07.645Z,5788
2018-05-03T09:08:17.750Z,5812
2018-05-03T09:09:27.862Z,5792
2018-05-03T09:10:37.976Z,5800
2018-05-03T09:11:48.063Z,5816
2018-05-03T09:12:57.897Z,5832
2018-05-03T09:14:08.023Z,5864
2018-05-03T09:15:18.150Z,5796
2018-05-03T09:16:28.265Z,5812
2018-05-03T09:17:38.383Z,5728
2018-05-03T09:18:48.474Z,5720
2018-05-03T09:19:58.603Z,5704
2018-05-03T09:21:08.685Z,5748
2018-05-03T09:22:18.798Z,5784
2018-05-03T09:23:28.914Z,5820
2018-05-03T09:24:39.018Z,5832
2018-05-03T09:25:49.141Z,5892
2018-05-03T09:26:58.707Z,6000
2018-05-03T09:28:08.819Z,5988
2018-05-03T09:29:18.908Z,5984
2018-05-03T09:30:28.725Z,6028
2018-05-03T09:31:38.833Z,5960
2018-05-03T09:32:48.671Z,5908
2018-05-03T09:33:58.536Z,5884
2018-05-03T09:35:08.637Z,5864
2018-05-03T09:36:18.471Z,5832
2018-05-03T09:37:28.037Z,5856
2018-05-03T09:38:38.119Z,5844
2018-05-03T09:39:47.971Z,5880
2018-05-03T09:40:58.047Z,5856
2018-05-03T09:42:08.140Z,5844
2018-05-03T09:43:17.973Z,5872
2018-05-03T09:44:28.184Z,5908
2018-05-03T09:45:38.383Z,5904
2018-05-03T09:46:48.495Z,5868
2018-05-03T09:47:58.591Z,5896
2018-05-03T09:49:08.691Z,5936
2018-05-03T09:50:18.867Z,5940
2018-05-03T09:51:29.197Z,5868
2018-05-03T09:52:39.225Z,5940
2018-05-03T09:53:49.322Z,5928
2018-05-03T09:54:59.417Z,5992
2018-05-03T09:56:09.535Z,5988
2018-05-03T09:57:19.638Z,6028
2018-05-03T09:58:29.447Z,6088
2018-05-03T09:59:39.536Z,6120
2018-05-03T10:00:49.367Z,6160
2018-05-03T10:01:59.479Z,6196
2018-05-03T10:03:09.611Z,6236
2018-05-03T10:04:19.708Z,6248
2018-05-03T10:05:29.561Z,6332
2018-05-03T10:06:39.661Z,6360
2018-05-03T10:07:49.809Z,6368
2018-05-03T10:08:59.892Z,6468
2018-05-03T10:10:09.724Z,6480
2018-05-03T10:11:19.555Z,6536
2018-05-03T10:12:29.363Z,6564
2018-05-03T10:13:39.451Z,6596
2018-05-03T10:14:49.708Z,6604
2018-05-03T10:15:59.800Z,6628
2018-05-03T10:17:09.912Z,6676
2018-05-03T10:18:20.012Z,6656
2018-05-03T10:19:29.941Z,6684
2018-05-03T10:20:39.770Z,6736
2018-05-03T10:21:49.853Z,6728
2018-05-03T10:22:59.666Z,6760
2018-05-03T10:24:09.258Z,6764
2018-05-03T10:25:19.423Z,6768
2018-05-03T10:26:29.248Z,6748
2018-05-03T10:27:39.347Z,6760
2018-05-03T10:28:49.204Z,6772
2018-05-03T10:29:59.199Z,6872
2018-05-03T10:31:09.450Z,6872
2018-05-03T10:32:19.541Z,6860
2018-05-03T10:33:29.634Z,6896
2018-05-03T10:34:39.208Z,6952
2018-05-03T10:35:49.047Z,6976
2018-05-03T10:36:59.004Z,6992
2018-05-03T10:38:09.092Z,7028
2018-05-03T10:39:19.173Z,7120
2018-05-03T10:40:29.270Z,7264
2018-05-03T10:41:39.487Z,7480
2018-05-03T10:42:48.806Z,7664
2018-05-03T10:43:58.906Z,7756
2018-05-03T10:45:08.742Z,7848
2018-05-03T10:46:18.583Z,7976
2018-05-03T10:47:28.459Z,8100
2018-05-03T10:48:38.665Z,8260
2018-05-03T10:49:48.125Z,8348
2018-05-03T10:50:58.226Z,8388
2018-05-03T10:52:08.074Z,8368
2018-05-03T10:53:18.213Z,8404
2018-05-03T10:54:28.307Z,8404
2018-05-03T10:55:37.867Z,8508
2018-05-03T10:56:47.963Z,8620
2018-05-03T10:57:58.066Z,8872
2018-05-03T10:59:08.175Z,7888
2018-05-03T11:00:18.036Z,9356
2018-05-03T11:01:27.872Z,9596
2018-05-03T11:02:37.962Z,9584
2018-05-03T11:03:48.046Z,9616
2018-05-03T11:04:57.854Z,9592
2018-05-03T11:06:07.693Z,9672
2018-05-03T11:07:17.778Z,9568
2018-05-03T11:08:27.882Z,9584
2018-05-03T11:09:37.970Z,9496
2018-05-03T11:10:48.082Z,9492
2018-05-03T11:11:58.228Z,9576
2018-05-03T11:13:08.110Z,7836
2018-05-03T11:14:17.955Z,5804
2018-05-03T11:15:28.065Z,5484
2018-05-03T11:16:38.236Z,5264
2018-05-03T11:17:48.425Z,5100
2018-05-03T11:18:58.247Z,5048
2018-05-03T11:20:08.354Z,4968
2018-05-03T11:21:18.451Z,4700
2018-05-03T11:22:28.004Z,4496
2018-05-03T11:23:38.095Z,4452
2018-05-03T11:24:48.261Z,4376
2018-05-03T11:25:58.590Z,5072
2018-05-03T11:27:08.729Z,7316
2018-05-03T11:28:18.837Z,7832
2018-05-03T11:29:28.978Z,7896
2018-05-03T11:30:39.174Z,7884
2018-05-03T11:31:49.318Z,7872
2018-05-03T11:32:59.162Z,7872
2018-05-03T11:34:09.304Z,7764
2018-05-03T11:35:19.463Z,7728
2018-05-03T11:36:29.306Z,7816
2018-05-03T11:37:39.158Z,7832
2018-05-03T11:38:49.293Z,7896
2018-05-03T11:39:59.395Z,7860
2018-05-03T11:41:09.516Z,7872
2018-05-03T11:42:19.616Z,7844
2018-05-03T11:43:29.698Z,7996
2018-05-03T11:44:39.806Z,7812
2018-05-03T11:45:49.639Z,7736
2018-05-03T11:46:59.792Z,7788
2018-05-03T11:48:09.632Z,7936
2018-05-03T11:49:19.818Z,7968
2018-05-03T11:50:29.926Z,7948
2018-05-03T11:51:40.028Z,7944
2018-05-03T11:52:49.866Z,8012
2018-05-03T11:53:59.701Z,7964
2018-05-03T11:55:09.829Z,7816
2018-05-03T11:56:19.994Z,7824
2018-05-03T11:57:30.102Z,4264
2018-05-03T11:58:39.977Z,4092
2018-05-03T11:59:50.073Z,3984
2018-05-03T12:01:00.170Z,3952
2018-05-03T12:02:10.256Z,4132
2018-05-03T12:03:19.831Z,4216
2018-05-03T12:04:29.664Z,7176
2018-05-03T12:05:39.768Z,7688
2018-05-03T12:06:49.603Z,7680
2018-05-03T12:13:40.959Z,7344
2018-05-03T12:14:51.074Z,7280
2018-05-03T12:16:01.180Z,7208
2018-05-03T12:17:11.013Z,7164
2018-05-03T12:18:21.114Z,7116
2018-05-03T12:19:31.351Z,6992
2018-05-03T12:20:41.444Z,7080
2018-05-03T12:21:51.276Z,7064
2018-05-03T12:23:01.114Z,6984
2018-05-03T12:24:11.195Z,6936
2018-05-03T12:25:21.041Z,6760
2018-05-03T12:26:30.874Z,6756
2018-05-03T12:27:40.971Z,6960
2018-05-03T12:28:50.884Z,6880
2018-05-03T12:30:00.720Z,6816
2018-05-03T12:31:10.815Z,6752
2018-05-03T12:32:20.649Z,6764
2018-05-03T12:33:30.763Z,6800
2018-05-03T12:34:40.866Z,6780
2018-05-03T12:35:50.985Z,6736
2018-05-03T12:37:00.819Z,6660
2018-05-03T12:38:10.929Z,6676
2018-05-03T12:39:21.029Z,6632
2018-05-03T12:40:30.608Z,6680
2018-05-03T12:41:40.716Z,6612
2018-05-03T12:42:50.820Z,6660
2018-05-03T12:44:00.914Z,6660
2018-05-03T12:45:10.754Z,6668
2018-05-03T12:46:20.907Z,6648
2018-05-03T12:47:30.804Z,6612
2018-05-03T12:48:40.636Z,6672
2018-05-03T12:49:50.718Z,6548
2018-05-03T12:51:00.823Z,6452
2018-05-03T12:52:11.056Z,6460
2018-05-03T12:53:21.162Z,6460
2018-05-03T12:54:31.272Z,6492
2018-05-03T12:55:41.377Z,6436
2018-05-03T12:56:51.454Z,6392
2018-05-03T12:58:01.552Z,6392
2018-05-03T12:59:11.644Z,6232
2018-05-03T13:00:21.482Z,6296
2018-05-03T13:01:31.580Z,6212
2018-05-03T13:02:41.672Z,6152
2018-05-03T13:03:51.818Z,6260
2018-05-03T13:05:01.924Z,6216
2018-05-03T13:06:11.789Z,6180
2018-05-03T13:07:21.630Z,6168
2018-05-03T13:08:31.471Z,6268
2018-05-03T13:09:41.577Z,6296
2018-05-03T13:10:51.676Z,6084
2018-05-03T13:12:01.780Z,6276
2018-05-03T13:13:11.611Z,6292
2018-05-03T13:14:21.773Z,6440
2018-05-03T13:15:31.899Z,6372
2018-05-03T13:16:41.994Z,6316
2018-05-03T13:17:52.091Z,6400
2018-05-03T13:19:02.178Z,6312
2018-05-03T13:20:12.526Z,6320
2018-05-03T13:21:22.433Z,6372
2018-05-03T13:22:32.534Z,6344
2018-05-03T13:23:42.631Z,6388
2018-05-03T13:24:52.749Z,6424
2018-05-03T13:26:02.860Z,6448
2018-05-03T13:27:13.013Z,6444
2018-05-03T13:28:23.101Z,6444
2018-05-03T13:29:32.923Z,6380
2018-05-03T13:30:43.075Z,6408
2018-05-03T13:31:52.916Z,6404
2018-05-03T13:33:02.797Z,6364
2018-05-03T13:34:12.884Z,6312
2018-05-03T13:35:22.984Z,6248
2018-05-03T13:36:33.078Z,6120
2018-05-03T13:37:42.914Z,6152
2018-05-03T13:38:53.005Z,6120
2018-05-03T13:40:03.092Z,6020
2018-05-03T13:41:13.369Z,5976
2018-05-03T13:42:23.523Z,5996
2018-05-03T13:43:33.676Z,6016
2018-05-03T13:44:43.854Z,5980
2018-05-03T13:45:53.721Z,6084
2018-05-03T13:47:03.832Z,6152
2018-05-03T13:48:13.948Z,6116
2018-05-03T13:49:24.053Z,6104
2018-05-03T13:50:34.153Z,6084
2018-05-03T13:51:44.005Z,6020
2018-05-03T13:52:54.091Z,6032
2018-05-03T13:54:04.195Z,6076
2018-05-03T13:55:14.316Z,6032
2018-05-03T13:56:24.519Z,6020
2018-05-03T13:57:34.616Z,6056
2018-05-03T13:58:44.715Z,6044
2018-05-03T13:59:54.832Z,6040
2018-05-03T14:01:04.662Z,5996
2018-05-03T14:02:14.830Z,5892
2018-05-03T14:03:24.649Z,5836
2018-05-03T14:04:34.480Z,5812
2018-05-03T14:05:44.324Z,5780
2018-05-03T14:06:54.539Z,5668
2018-05-03T14:08:04.652Z,5644
2018-05-03T14:09:14.744Z,5660
2018-05-03T14:10:24.865Z,5688
2018-05-03T14:11:34.972Z,5748
2018-05-03T14:12:45.076Z,5688
2018-05-03T14:13:55.160Z,5720
2018-05-03T14:15:05.051Z,5672
2018-05-03T14:16:15.168Z,5632
2018-05-03T14:17:25.001Z,5688
2018-05-03T14:18:35.141Z,5676
2018-05-03T14:19:45.018Z,5788
2018-05-03T14:20:55.306Z,5804
2018-05-03T14:22:05.321Z,5816
2018-05-03T14:23:15.420Z,5804
2018-05-03T14:24:25.264Z,5792
2018-05-03T14:25:35.150Z,5660
2018-05-03T14:26:45.270Z,5736
2018-05-03T14:27:55.417Z,5752
2018-05-03T14:29:05.231Z,5732
2018-05-03T14:30:15.071Z,5724
2018-05-03T14:31:25.168Z,5684
2018-05-03T14:32:35.265Z,5640
2018-05-03T14:33:45.091Z,5676
2018-05-03T14:34:55.202Z,5684
2018-05-03T14:36:05.308Z,5664
2018-05-03T14:37:15.448Z,5644
2018-05-03T14:38:25.545Z,5604
2018-05-03T14:39:35.634Z,5568
2018-05-03T14:40:45.722Z,5524
2018-05-03T14:41:55.794Z,5508
2018-05-03T14:43:05.687Z,5456
2018-05-03T14:44:16.025Z,5392
2018-05-03T14:45:26.123Z,5408
2018-05-03T14:46:36.227Z,5360
2018-05-03T14:47:45.785Z,5324
2018-05-03T14:48:55.936Z,5384
2018-05-03T14:50:06.042Z,5376
2018-05-03T14:51:15.881Z,5348
2018-05-03T14:52:25.710Z,5324
2018-05-03T14:53:35.801Z,5320
2018-05-03T14:54:45.641Z,5328
2018-05-03T14:55:55.770Z,5308
2018-05-03T14:57:05.941Z,5300
2018-05-03T14:58:15.809Z,5208
2018-05-03T14:59:25.914Z,5352
2018-05-03T15:00:36.015Z,5388
2018-05-03T15:01:45.844Z,5476
2018-05-03T15:02:55.945Z,5540
2018-05-03T15:04:06.048Z,5564
2018-05-03T15:05:15.890Z,5628
2018-05-03T15:06:26.054Z,5708
2018-05-03T15:07:36.182Z,5804
2018-05-03T15:08:46.286Z,5916
2018-05-03T15:09:56.376Z,6000
2018-05-03T15:11:06.299Z,6076
2018-05-03T15:12:16.458Z,6128
2018-05-03T15:13:26.549Z,6080
2018-05-03T15:14:36.634Z,6128
2018-05-03T15:15:46.748Z,6108
2018-05-03T15:16:56.332Z,6032
2018-05-03T15:18:06.425Z,5904
2018-05-03T15:19:16.542Z,5772
2018-05-03T15:20:26.635Z,5624
2018-05-03T15:21:36.742Z,5568
2018-05-03T15:22:46.859Z,5528
2018-05-03T15:23:57.083Z,5396
2018-05-03T15:25:07.177Z,5232
2018-05-03T15:26:17.294Z,5096
2018-05-03T15:27:27.407Z,5056
2018-05-03T15:28:37.271Z,4916
2018-05-03T15:29:47.351Z,4604
2018-05-03T15:30:57.470Z,3784
2018-05-03T15:32:07.571Z,3716
2018-05-03T15:33:17.692Z,3680
2018-05-03T15:34:27.526Z,3668
2018-05-03T15:35:37.686Z,4084
2018-05-03T15:36:47.521Z,3608
2018-05-03T15:37:57.360Z,4156
2018-05-03T15:39:07.478Z,4324
2018-05-03T15:40:17.320Z,3740
2018-05-03T15:41:27.179Z,3348
2018-05-03T15:42:37.294Z,3312
2018-05-03T15:43:47.384Z,3292
2018-05-03T15:44:57.542Z,3272
2018-05-03T15:46:07.649Z,3224
2018-05-03T15:47:17.766Z,3192
2018-05-03T15:48:27.861Z,3236
2018-05-03T15:49:37.955Z,3288
2018-05-03T15:50:48.047Z,3292
2018-05-03T15:51:58.141Z,3368
2018-05-03T15:53:08.234Z,3316
2018-05-03T15:54:18.337Z,3224
2018-05-03T15:55:28.438Z,3168
2018-05-03T15:56:38.535Z,3132
2018-05-03T15:57:48.380Z,3076
2018-05-03T15:58:58.479Z,3540
2018-05-03T16:00:08.326Z,3404
2018-05-03T16:01:18.460Z,3052
2018-05-03T16:02:28.546Z,2932
2018-05-03T16:03:38.692Z,2904
2018-05-03T16:04:48.850Z,2872
2018-05-03T16:05:58.960Z,2832
2018-05-03T16:07:09.139Z,2972
2018-05-03T16:08:19.309Z,3460
2018-05-03T16:09:29.415Z,3436
2018-05-03T16:10:39.266Z,3376
2018-05-03T16:11:49.377Z,3308
2018-05-03T16:12:59.476Z,3240
2018-05-03T16:14:09.361Z,3204
2018-05-03T16:15:19.529Z,3196
2018-05-03T16:16:29.618Z,3220
2018-05-03T16:17:39.708Z,3176
2018-05-03T16:18:49.812Z,3128
2018-05-03T16:19:59.930Z,3084
2018-05-03T16:21:09.771Z,3052
2018-05-03T16:22:19.899Z,3032
2018-05-03T16:23:30.030Z,2996
2018-05-03T16:24:40.162Z,2964
2018-05-03T16:25:50.342Z,2924
2018-05-03T16:27:00.460Z,2888
2018-05-03T16:28:10.685Z,2852